Airfield :
LOGIN :

Register | Disclaimer

   EN    FR    IT 

 










Legend :    VFR   Marginal VFR   IFR   Intensive IFR   Very Intensive IFR
Visi :
Ceiling :
>= 8 km
>= 3000ft
5 to 8 km
1000 to 3000 ft
1500m to 5 km
500 to 1000 ft
800 to 1500m
200 to 500 ft
< 800m
< 200 ft
Symbols :   Thunderstorms  Fog  Heavy snow  Heavy precipitations  Wind > 20 kt
SIGMETs :     Misc.  Thunderstorms  Icing  Turbulence  Mountain Waves  Volcanic Ashes







- Airport Elevation : 44 ft
- IATA code : SOU
- Download approach charts


EGHI - Southampton

CURRENT METAR :
  • 150950Z 33010KT 9999 FEW018 03/00 Q0998

EXPIRED METARs :
  • 150920Z 34010KT 300V020 9999 FEW018 03/01 Q0997
  • 150850Z 33011KT 300V360 9999 VCSH BKN018 03/01 Q0996
  • 150820Z 34013G23KT 300V030 9999 BKN016 03/01 Q0995
  • 150750Z 34015KT 300V010 9999 FEW014 BKN019 03/01 Q0994
  • 150720Z 33014G25KT 300V360 8000 VCSH FEW015 BKN020 04/02 Q0993

TAF AMD TAF EGHI
Valid from the 15 at 09:00 until the 15 at 18:00 UTC


150854Z 1509/1518 32010KT 9999 SCT025
TEMPO 1509/1511 33015G27KT 8000 SHRA
ATIS : +44 23 8062 7103
No reported NOTAMs for that airfield.



MET'MAP, your aeronautical weather chart ! - Copyright ORBIFLY December 2007 - Disclaimer

ORBIFLY MET'MAP TEAM :

Programming & Development : Alexandra Zaïnal
Concept & Development : Baudouin d'Aumeries
Co-Development & Prog : Marc-Olivier Méhu
Technical & hardware support : Manuel Goepfert

Contact : metmap@orbifly.com




SOURCES & CREDITS :

   NOAA